sensor_id;sensor_type;location;lat;lon;timestamp;P1;durP1;ratioP1;P2;durP2;ratioP2
28343;SDS011;15597;50.914;6.638;2022-12-18T00:01:40;22.38;;;10.15;;
28343;SDS011;15597;50.914;6.638;2022-12-18T00:04:06;21.55;;;9.45;;
28343;SDS011;15597;50.914;6.638;2022-12-18T00:06:33;20.75;;;8.73;;
28343;SDS011;15597;50.914;6.638;2022-12-18T00:09:00;19.63;;;8.38;;
28343;SDS011;15597;50.914;6.638;2022-12-18T00:11:28;19.13;;;8.00;;
28343;SDS011;15597;50.914;6.638;2022-12-18T00:13:56;20.38;;;9.20;;
28343;SDS011;15597;50.914;6.638;2022-12-18T00:16:23;20.10;;;7.80;;
28343;SDS011;15597;50.914;6.638;2022-12-18T00:18:50;19.58;;;8.15;;
28343;SDS011;15597;50.914;6.638;2022-12-18T00:21:17;18.52;;;8.52;;
28343;SDS011;15597;50.914;6.638;2022-12-18T00:23:45;22.30;;;8.60;;
28343;SDS011;15597;50.914;6.638;2022-12-18T00:26:13;19.20;;;9.05;;
28343;SDS011;15597;50.914;6.638;2022-12-18T00:28:40;20.30;;;8.60;;
28343;SDS011;15597;50.914;6.638;2022-12-18T00:31:08;19.83;;;8.23;;
28343;SDS011;15597;50.914;6.638;2022-12-18T00:33:35;18.35;;;8.13;;
28343;SDS011;15597;50.914;6.638;2022-12-18T00:36:02;19.65;;;8.30;;
28343;SDS011;15597;50.914;6.638;2022-12-18T00:38:30;20.85;;;9.02;;
28343;SDS011;15597;50.914;6.638;2022-12-18T00:40:55;20.13;;;8.80;;
28343;SDS011;15597;50.914;6.638;2022-12-18T00:43:21;21.40;;;9.32;;
28343;SDS011;15597;50.914;6.638;2022-12-18T00:45:47;26.33;;;9.27;;
28343;SDS011;15597;50.914;6.638;2022-12-18T00:48:12;21.38;;;8.48;;
28343;SDS011;15597;50.914;6.638;2022-12-18T00:50:38;18.13;;;7.82;;
28343;SDS011;15597;50.914;6.638;2022-12-18T00:53:03;20.58;;;8.57;;
28343;SDS011;15597;50.914;6.638;2022-12-18T00:55:29;20.92;;;9.10;;
28343;SDS011;15597;50.914;6.638;2022-12-18T00:57:54;17.33;;;7.88;;
28343;SDS011;15597;50.914;6.638;2022-12-18T01:00:20;22.65;;;9.30;;
28343;SDS011;15597;50.914;6.638;2022-12-18T01:02:47;24.25;;;10.75;;
28343;SDS011;15597;50.914;6.638;2022-12-18T01:05:12;21.17;;;8.63;;
28343;SDS011;15597;50.914;6.638;2022-12-18T01:07:38;20.27;;;8.48;;
28343;SDS011;15597;50.914;6.638;2022-12-18T01:10:04;25.90;;;10.38;;
28343;SDS011;15597;50.914;6.638;2022-12-18T01:12:31;20.73;;;9.40;;
28343;SDS011;15597;50.914;6.638;2022-12-18T01:14:57;18.63;;;8.75;;
28343;SDS011;15597;50.914;6.638;2022-12-18T01:17:22;21.73;;;8.93;;
28343;SDS011;15597;50.914;6.638;2022-12-18T01:19:48;19.48;;;8.55;;
28343;SDS011;15597;50.914;6.638;2022-12-18T01:22:13;17.45;;;8.07;;
28343;SDS011;15597;50.914;6.638;2022-12-18T01:24:39;17.85;;;8.20;;
28343;SDS011;15597;50.914;6.638;2022-12-18T01:27:04;21.85;;;9.00;;
28343;SDS011;15597;50.914;6.638;2022-12-18T01:29:30;20.40;;;8.63;;
28343;SDS011;15597;50.914;6.638;2022-12-18T01:31:56;19.25;;;7.97;;
28343;SDS011;15597;50.914;6.638;2022-12-18T01:34:22;19.35;;;8.32;;
28343;SDS011;15597;50.914;6.638;2022-12-18T01:36:48;21.48;;;9.32;;
28343;SDS011;15597;50.914;6.638;2022-12-18T01:39:14;22.35;;;9.20;;
28343;SDS011;15597;50.914;6.638;2022-12-18T01:41:41;19.15;;;8.60;;
28343;SDS011;15597;50.914;6.638;2022-12-18T01:50:00;19.63;;;8.23;;
28343;SDS011;15597;50.914;6.638;2022-12-18T01:52:35;19.50;;;8.00;;
28343;SDS011;15597;50.914;6.638;2022-12-18T01:55:06;16.42;;;7.25;;
28343;SDS011;15597;50.914;6.638;2022-12-18T01:57:32;18.60;;;8.23;;
28343;SDS011;15597;50.914;6.638;2022-12-18T02:00:04;17.83;;;8.00;;
28343;SDS011;15597;50.914;6.638;2022-12-18T02:02:40;17.73;;;7.85;;
28343;SDS011;15597;50.914;6.638;2022-12-18T02:05:08;16.83;;;7.15;;
28343;SDS011;15597;50.914;6.638;2022-12-18T02:10:31;19.48;;;7.90;;
28343;SDS011;15597;50.914;6.638;2022-12-18T02:15:57;20.88;;;8.57;;
28343;SDS011;15597;50.914;6.638;2022-12-18T02:18:41;17.75;;;8.23;;
28343;SDS011;15597;50.914;6.638;2022-12-18T02:21:32;20.80;;;8.80;;
28343;SDS011;15597;50.914;6.638;2022-12-18T02:27:16;17.33;;;7.32;;
28343;SDS011;15597;50.914;6.638;2022-12-18T02:29:54;16.92;;;7.75;;
28343;SDS011;15597;50.914;6.638;2022-12-18T02:32:26;21.30;;;8.48;;
28343;SDS011;15597;50.914;6.638;2022-12-18T02:34:56;18.90;;;8.25;;
28343;SDS011;15597;50.914;6.638;2022-12-18T02:37:26;21.98;;;9.27;;
28343;SDS011;15597;50.914;6.638;2022-12-18T02:39:58;19.55;;;8.73;;
28343;SDS011;15597;50.914;6.638;2022-12-18T02:42:24;20.10;;;8.23;;
28343;SDS011;15597;50.914;6.638;2022-12-18T02:44:51;20.73;;;7.97;;
28343;SDS011;15597;50.914;6.638;2022-12-18T02:47:24;22.55;;;8.95;;
28343;SDS011;15597;50.914;6.638;2022-12-18T02:55:58;20.23;;;8.18;;
28343;SDS011;15597;50.914;6.638;2022-12-18T02:58:17;20.95;;;8.88;;
28343;SDS011;15597;50.914;6.638;2022-12-18T03:00:59;18.98;;;7.85;;
28343;SDS011;15597;50.914;6.638;2022-12-18T03:03:36;20.48;;;9.20;;
28343;SDS011;15597;50.914;6.638;2022-12-18T03:06:07;20.00;;;8.55;;
28343;SDS011;15597;50.914;6.638;2022-12-18T03:08:39;23.60;;;9.18;;
28343;SDS011;15597;50.914;6.638;2022-12-18T03:11:10;19.83;;;8.60;;
28343;SDS011;15597;50.914;6.638;2022-12-18T03:13:54;19.58;;;8.85;;
28343;SDS011;15597;50.914;6.638;2022-12-18T03:16:27;21.77;;;8.88;;
28343;SDS011;15597;50.914;6.638;2022-12-18T03:19:00;21.48;;;8.55;;
28343;SDS011;15597;50.914;6.638;2022-12-18T03:21:29;17.23;;;7.45;;
28343;SDS011;15597;50.914;6.638;2022-12-18T03:24:03;16.13;;;7.63;;
28343;SDS011;15597;50.914;6.638;2022-12-18T03:26:33;21.73;;;9.13;;
28343;SDS011;15597;50.914;6.638;2022-12-18T03:29:04;17.95;;;7.95;;
28343;SDS011;15597;50.914;6.638;2022-12-18T03:31:34;17.48;;;7.25;;
28343;SDS011;15597;50.914;6.638;2022-12-18T03:34:05;21.38;;;9.20;;
28343;SDS011;15597;50.914;6.638;2022-12-18T03:36:42;18.48;;;8.32;;
28343;SDS011;15597;50.914;6.638;2022-12-18T03:39:08;21.65;;;8.82;;
28343;SDS011;15597;50.914;6.638;2022-12-18T03:41:43;19.92;;;9.02;;
28343;SDS011;15597;50.914;6.638;2022-12-18T03:51:57;18.48;;;7.78;;
28343;SDS011;15597;50.914;6.638;2022-12-18T03:54:31;17.33;;;7.28;;
28343;SDS011;15597;50.914;6.638;2022-12-18T03:57:11;17.13;;;7.45;;
28343;SDS011;15597;50.914;6.638;2022-12-18T03:59:41;19.52;;;7.88;;
28343;SDS011;15597;50.914;6.638;2022-12-18T04:02:09;19.25;;;8.43;;
28343;SDS011;15597;50.914;6.638;2022-12-18T04:04:37;20.60;;;8.27;;
28343;SDS011;15597;50.914;6.638;2022-12-18T04:07:04;19.48;;;8.57;;
28343;SDS011;15597;50.914;6.638;2022-12-18T04:09:33;24.42;;;10.18;;
28343;SDS011;15597;50.914;6.638;2022-12-18T04:12:00;19.48;;;8.38;;
28343;SDS011;15597;50.914;6.638;2022-12-18T04:14:26;20.55;;;8.40;;
28343;SDS011;15597;50.914;6.638;2022-12-18T04:16:54;16.25;;;7.00;;
28343;SDS011;15597;50.914;6.638;2022-12-18T04:19:25;18.08;;;7.80;;
28343;SDS011;15597;50.914;6.638;2022-12-18T04:21:52;18.48;;;7.60;;
28343;SDS011;15597;50.914;6.638;2022-12-18T04:24:18;17.98;;;8.20;;
28343;SDS011;15597;50.914;6.638;2022-12-18T04:26:53;20.50;;;8.43;;
28343;SDS011;15597;50.914;6.638;2022-12-18T04:29:25;20.92;;;8.73;;
28343;SDS011;15597;50.914;6.638;2022-12-18T04:31:51;20.27;;;8.43;;
28343;SDS011;15597;50.914;6.638;2022-12-18T04:34:18;19.90;;;7.82;;
28343;SDS011;15597;50.914;6.638;2022-12-18T04:36:48;16.63;;;7.82;;
28343;SDS011;15597;50.914;6.638;2022-12-18T04:39:15;19.75;;;8.25;;
28343;SDS011;15597;50.914;6.638;2022-12-18T04:41:44;19.42;;;7.57;;
28343;SDS011;15597;50.914;6.638;2022-12-18T04:44:11;15.65;;;7.10;;
28343;SDS011;15597;50.914;6.638;2022-12-18T04:46:37;16.33;;;6.88;;
28343;SDS011;15597;50.914;6.638;2022-12-18T04:49:02;21.27;;;8.73;;
28343;SDS011;15597;50.914;6.638;2022-12-18T04:51:28;17.60;;;7.82;;
28343;SDS011;15597;50.914;6.638;2022-12-18T04:53:54;19.85;;;8.57;;
28343;SDS011;15597;50.914;6.638;2022-12-18T04:56:19;17.65;;;7.82;;
28343;SDS011;15597;50.914;6.638;2022-12-18T04:58:45;17.10;;;6.97;;
28343;SDS011;15597;50.914;6.638;2022-12-18T05:01:11;16.85;;;6.55;;
28343;SDS011;15597;50.914;6.638;2022-12-18T05:03:38;21.15;;;9.20;;
28343;SDS011;15597;50.914;6.638;2022-12-18T05:06:04;19.80;;;8.00;;
28343;SDS011;15597;50.914;6.638;2022-12-18T05:08:31;16.00;;;7.53;;
28343;SDS011;15597;50.914;6.638;2022-12-18T05:11:10;17.23;;;7.38;;
28343;SDS011;15597;50.914;6.638;2022-12-18T05:13:41;16.05;;;6.88;;
28343;SDS011;15597;50.914;6.638;2022-12-18T05:16:07;21.52;;;8.68;;
28343;SDS011;15597;50.914;6.638;2022-12-18T05:18:33;19.58;;;8.55;;
28343;SDS011;15597;50.914;6.638;2022-12-18T05:20:59;21.45;;;8.82;;
28343;SDS011;15597;50.914;6.638;2022-12-18T05:23:25;19.02;;;8.43;;
28343;SDS011;15597;50.914;6.638;2022-12-18T05:25:55;23.15;;;10.18;;
28343;SDS011;15597;50.914;6.638;2022-12-18T05:28:23;19.27;;;8.63;;
28343;SDS011;15597;50.914;6.638;2022-12-18T05:30:54;20.52;;;8.73;;
28343;SDS011;15597;50.914;6.638;2022-12-18T05:33:22;20.83;;;9.13;;
28343;SDS011;15597;50.914;6.638;2022-12-18T05:35:52;25.98;;;10.15;;
28343;SDS011;15597;50.914;6.638;2022-12-18T05:38:19;22.83;;;8.60;;
28343;SDS011;15597;50.914;6.638;2022-12-18T05:40:46;18.30;;;8.27;;
28343;SDS011;15597;50.914;6.638;2022-12-18T05:43:12;20.30;;;8.20;;
28343;SDS011;15597;50.914;6.638;2022-12-18T05:45:38;20.25;;;8.60;;
28343;SDS011;15597;50.914;6.638;2022-12-18T05:48:06;18.13;;;7.00;;
28343;SDS011;15597;50.914;6.638;2022-12-18T05:50:36;18.70;;;8.40;;
28343;SDS011;15597;50.914;6.638;2022-12-18T05:53:04;20.20;;;8.57;;
28343;SDS011;15597;50.914;6.638;2022-12-18T05:55:33;20.92;;;8.60;;
28343;SDS011;15597;50.914;6.638;2022-12-18T05:58:03;24.55;;;9.82;;
28343;SDS011;15597;50.914;6.638;2022-12-18T06:00:30;24.10;;;9.63;;
28343;SDS011;15597;50.914;6.638;2022-12-18T06:02:57;17.70;;;7.72;;
28343;SDS011;15597;50.914;6.638;2022-12-18T06:05:23;24.98;;;10.57;;
28343;SDS011;15597;50.914;6.638;2022-12-18T06:07:48;21.60;;;8.93;;
28343;SDS011;15597;50.914;6.638;2022-12-18T06:10:17;21.48;;;8.82;;
28343;SDS011;15597;50.914;6.638;2022-12-18T06:12:43;26.13;;;10.05;;
28343;SDS011;15597;50.914;6.638;2022-12-18T06:15:08;20.75;;;8.20;;
28343;SDS011;15597;50.914;6.638;2022-12-18T06:17:34;16.58;;;6.97;;
28343;SDS011;15597;50.914;6.638;2022-12-18T06:20:00;21.20;;;9.32;;
28343;SDS011;15597;50.914;6.638;2022-12-18T06:22:26;20.98;;;8.82;;
28343;SDS011;15597;50.914;6.638;2022-12-18T06:24:52;19.63;;;7.00;;
28343;SDS011;15597;50.914;6.638;2022-12-18T06:27:18;24.90;;;10.02;;
28343;SDS011;15597;50.914;6.638;2022-12-18T06:29:44;25.75;;;10.13;;
28343;SDS011;15597;50.914;6.638;2022-12-18T06:32:09;22.60;;;8.90;;
28343;SDS011;15597;50.914;6.638;2022-12-18T06:34:36;21.10;;;9.32;;
28343;SDS011;15597;50.914;6.638;2022-12-18T06:37:02;20.48;;;8.77;;
28343;SDS011;15597;50.914;6.638;2022-12-18T06:39:28;24.48;;;10.40;;
28343;SDS011;15597;50.914;6.638;2022-12-18T06:41:54;20.13;;;8.70;;
28343;SDS011;15597;50.914;6.638;2022-12-18T06:44:20;17.65;;;7.55;;
28343;SDS011;15597;50.914;6.638;2022-12-18T06:46:46;17.77;;;7.38;;
28343;SDS011;15597;50.914;6.638;2022-12-18T06:49:11;19.55;;;8.27;;
28343;SDS011;15597;50.914;6.638;2022-12-18T06:51:37;18.02;;;8.15;;
28343;SDS011;15597;50.914;6.638;2022-12-18T06:54:03;21.80;;;8.80;;
28343;SDS011;15597;50.914;6.638;2022-12-18T06:56:28;22.65;;;9.77;;
28343;SDS011;15597;50.914;6.638;2022-12-18T06:58:54;24.08;;;10.05;;
28343;SDS011;15597;50.914;6.638;2022-12-18T07:01:20;24.60;;;9.68;;
28343;SDS011;15597;50.914;6.638;2022-12-18T07:03:46;20.25;;;8.45;;
28343;SDS011;15597;50.914;6.638;2022-12-18T07:06:15;25.23;;;10.13;;
28343;SDS011;15597;50.914;6.638;2022-12-18T07:08:42;20.52;;;8.98;;
28343;SDS011;15597;50.914;6.638;2022-12-18T07:11:08;28.17;;;11.30;;
28343;SDS011;15597;50.914;6.638;2022-12-18T07:13:34;17.85;;;7.05;;
28343;SDS011;15597;50.914;6.638;2022-12-18T07:16:06;29.25;;;10.93;;
28343;SDS011;15597;50.914;6.638;2022-12-18T07:18:34;20.13;;;8.65;;
28343;SDS011;15597;50.914;6.638;2022-12-18T07:21:03;20.90;;;9.10;;
28343;SDS011;15597;50.914;6.638;2022-12-18T07:23:36;24.27;;;10.77;;
28343;SDS011;15597;50.914;6.638;2022-12-18T07:26:05;21.55;;;8.73;;
28343;SDS011;15597;50.914;6.638;2022-12-18T07:28:36;18.35;;;8.00;;
28343;SDS011;15597;50.914;6.638;2022-12-18T07:31:03;21.00;;;9.13;;
28343;SDS011;15597;50.914;6.638;2022-12-18T07:33:29;20.30;;;8.80;;
28343;SDS011;15597;50.914;6.638;2022-12-18T07:35:55;21.10;;;8.98;;
28343;SDS011;15597;50.914;6.638;2022-12-18T07:38:21;28.40;;;11.00;;
28343;SDS011;15597;50.914;6.638;2022-12-18T07:40:47;25.25;;;10.40;;
28343;SDS011;15597;50.914;6.638;2022-12-18T07:43:12;25.15;;;9.93;;
28343;SDS011;15597;50.914;6.638;2022-12-18T07:45:38;26.75;;;11.52;;
28343;SDS011;15597;50.914;6.638;2022-12-18T07:48:03;21.80;;;8.48;;
28343;SDS011;15597;50.914;6.638;2022-12-18T07:50:29;21.85;;;9.73;;
28343;SDS011;15597;50.914;6.638;2022-12-18T07:52:54;19.67;;;8.52;;
28343;SDS011;15597;50.914;6.638;2022-12-18T07:55:20;22.83;;;9.98;;
28343;SDS011;15597;50.914;6.638;2022-12-18T07:57:45;26.00;;;10.63;;
28343;SDS011;15597;50.914;6.638;2022-12-18T08:00:11;22.38;;;8.10;;
28343;SDS011;15597;50.914;6.638;2022-12-18T08:02:37;27.17;;;11.32;;
28343;SDS011;15597;50.914;6.638;2022-12-18T08:05:03;20.95;;;9.00;;
28343;SDS011;15597;50.914;6.638;2022-12-18T08:07:29;23.83;;;9.55;;
28343;SDS011;15597;50.914;6.638;2022-12-18T08:09:54;19.58;;;8.20;;
28343;SDS011;15597;50.914;6.638;2022-12-18T08:12:20;18.20;;;8.57;;
28343;SDS011;15597;50.914;6.638;2022-12-18T08:14:45;21.38;;;8.23;;
28343;SDS011;15597;50.914;6.638;2022-12-18T08:17:11;21.73;;;8.93;;
28343;SDS011;15597;50.914;6.638;2022-12-18T08:19:36;24.25;;;9.43;;
28343;SDS011;15597;50.914;6.638;2022-12-18T08:22:02;19.45;;;7.88;;
28343;SDS011;15597;50.914;6.638;2022-12-18T08:24:27;20.20;;;9.05;;
28343;SDS011;15597;50.914;6.638;2022-12-18T08:26:53;20.13;;;8.18;;
28343;SDS011;15597;50.914;6.638;2022-12-18T08:29:18;18.63;;;8.43;;
28343;SDS011;15597;50.914;6.638;2022-12-18T08:31:44;16.23;;;6.72;;
28343;SDS011;15597;50.914;6.638;2022-12-18T08:34:10;21.45;;;9.10;;
28343;SDS011;15597;50.914;6.638;2022-12-18T08:36:35;23.80;;;10.15;;
28343;SDS011;15597;50.914;6.638;2022-12-18T08:39:01;22.90;;;9.50;;
28343;SDS011;15597;50.914;6.638;2022-12-18T08:41:26;22.85;;;8.68;;
28343;SDS011;15597;50.914;6.638;2022-12-18T08:43:52;24.25;;;10.15;;
28343;SDS011;15597;50.914;6.638;2022-12-18T08:46:39;19.48;;;7.82;;
28343;SDS011;15597;50.914;6.638;2022-12-18T08:49:07;25.27;;;10.85;;
28343;SDS011;15597;50.914;6.638;2022-12-18T08:51:34;20.90;;;7.80;;
28343;SDS011;15597;50.914;6.638;2022-12-18T08:54:01;19.08;;;8.57;;
28343;SDS011;15597;50.914;6.638;2022-12-18T08:56:27;18.85;;;8.70;;
28343;SDS011;15597;50.914;6.638;2022-12-18T08:58:55;24.73;;;9.40;;
28343;SDS011;15597;50.914;6.638;2022-12-18T09:01:21;22.70;;;8.93;;
28343;SDS011;15597;50.914;6.638;2022-12-18T09:03:47;21.42;;;8.52;;
28343;SDS011;15597;50.914;6.638;2022-12-18T09:06:17;24.45;;;10.07;;
28343;SDS011;15597;50.914;6.638;2022-12-18T09:08:44;18.17;;;7.72;;
28343;SDS011;15597;50.914;6.638;2022-12-18T09:11:13;19.17;;;8.00;;
28343;SDS011;15597;50.914;6.638;2022-12-18T09:13:43;19.73;;;8.60;;
28343;SDS011;15597;50.914;6.638;2022-12-18T09:16:09;18.10;;;7.65;;
28343;SDS011;15597;50.914;6.638;2022-12-18T09:18:34;21.90;;;8.63;;
28343;SDS011;15597;50.914;6.638;2022-12-18T09:21:06;20.98;;;8.80;;
28343;SDS011;15597;50.914;6.638;2022-12-18T09:23:33;16.70;;;7.70;;
28343;SDS011;15597;50.914;6.638;2022-12-18T09:25:59;18.98;;;8.25;;
28343;SDS011;15597;50.914;6.638;2022-12-18T09:28:24;19.85;;;8.15;;
28343;SDS011;15597;50.914;6.638;2022-12-18T09:30:52;19.20;;;8.02;;
28343;SDS011;15597;50.914;6.638;2022-12-18T09:33:17;19.23;;;9.02;;
28343;SDS011;15597;50.914;6.638;2022-12-18T09:35:43;16.98;;;7.45;;
28343;SDS011;15597;50.914;6.638;2022-12-18T09:38:14;18.33;;;8.07;;
28343;SDS011;15597;50.914;6.638;2022-12-18T09:43:46;20.95;;;9.27;;
28343;SDS011;15597;50.914;6.638;2022-12-18T09:46:19;19.38;;;8.70;;
28343;SDS011;15597;50.914;6.638;2022-12-18T09:48:51;17.20;;;7.55;;
28343;SDS011;15597;50.914;6.638;2022-12-18T09:51:21;19.70;;;7.25;;
28343;SDS011;15597;50.914;6.638;2022-12-18T09:53:53;19.85;;;7.70;;
28343;SDS011;15597;50.914;6.638;2022-12-18T09:56:34;20.40;;;8.45;;
28343;SDS011;15597;50.914;6.638;2022-12-18T09:59:03;18.48;;;7.75;;
28343;SDS011;15597;50.914;6.638;2022-12-18T10:01:29;20.02;;;8.13;;
28343;SDS011;15597;50.914;6.638;2022-12-18T10:03:57;19.92;;;8.02;;
28343;SDS011;15597;50.914;6.638;2022-12-18T10:06:33;21.10;;;8.73;;
28343;SDS011;15597;50.914;6.638;2022-12-18T10:22:37;20.48;;;8.57;;
28343;SDS011;15597;50.914;6.638;2022-12-18T10:27:53;19.13;;;8.27;;
28343;SDS011;15597;50.914;6.638;2022-12-18T10:30:23;15.88;;;6.72;;
28343;SDS011;15597;50.914;6.638;2022-12-18T10:32:50;19.33;;;8.05;;
28343;SDS011;15597;50.914;6.638;2022-12-18T10:35:23;18.38;;;8.27;;
28343;SDS011;15597;50.914;6.638;2022-12-18T10:38:04;23.95;;;10.55;;
28343;SDS011;15597;50.914;6.638;2022-12-18T10:40:30;20.17;;;8.10;;
28343;SDS011;15597;50.914;6.638;2022-12-18T10:43:03;23.30;;;9.85;;
28343;SDS011;15597;50.914;6.638;2022-12-18T10:45:39;16.73;;;7.13;;
28343;SDS011;15597;50.914;6.638;2022-12-18T10:48:17;20.52;;;8.93;;
28343;SDS011;15597;50.914;6.638;2022-12-18T10:50:46;23.65;;;9.25;;
28343;SDS011;15597;50.914;6.638;2022-12-18T10:53:18;19.42;;;8.38;;
28343;SDS011;15597;50.914;6.638;2022-12-18T10:55:46;21.77;;;10.13;;
28343;SDS011;15597;50.914;6.638;2022-12-18T10:58:29;23.38;;;9.70;;
28343;SDS011;15597;50.914;6.638;2022-12-18T11:01:12;25.77;;;10.50;;
28343;SDS011;15597;50.914;6.638;2022-12-18T11:06:14;19.75;;;8.45;;
28343;SDS011;15597;50.914;6.638;2022-12-18T11:11:27;25.65;;;10.13;;
28343;SDS011;15597;50.914;6.638;2022-12-18T11:14:03;19.05;;;7.13;;
28343;SDS011;15597;50.914;6.638;2022-12-18T11:16:36;24.10;;;10.55;;
28343;SDS011;15597;50.914;6.638;2022-12-18T11:19:10;19.48;;;8.52;;
28343;SDS011;15597;50.914;6.638;2022-12-18T11:21:41;24.77;;;9.95;;
28343;SDS011;15597;50.914;6.638;2022-12-18T11:24:09;21.77;;;8.93;;
28343;SDS011;15597;50.914;6.638;2022-12-18T11:26:45;21.85;;;9.75;;
28343;SDS011;15597;50.914;6.638;2022-12-18T11:29:16;20.63;;;8.80;;
28343;SDS011;15597;50.914;6.638;2022-12-18T11:31:43;23.48;;;8.25;;
28343;SDS011;15597;50.914;6.638;2022-12-18T11:34:17;20.45;;;8.18;;
28343;SDS011;15597;50.914;6.638;2022-12-18T11:36:51;24.95;;;9.57;;
28343;SDS011;15597;50.914;6.638;2022-12-18T11:39:21;27.35;;;10.90;;
28343;SDS011;15597;50.914;6.638;2022-12-18T11:41:59;24.65;;;9.55;;
28343;SDS011;15597;50.914;6.638;2022-12-18T11:44:46;28.35;;;10.20;;
28343;SDS011;15597;50.914;6.638;2022-12-18T11:49:50;32.55;;;10.15;;
28343;SDS011;15597;50.914;6.638;2022-12-18T11:52:18;32.08;;;11.40;;
28343;SDS011;15597;50.914;6.638;2022-12-18T11:54:52;24.73;;;10.98;;
28343;SDS011;15597;50.914;6.638;2022-12-18T12:00:17;30.25;;;10.77;;
28343;SDS011;15597;50.914;6.638;2022-12-18T12:03:06;33.00;;;13.15;;
28343;SDS011;15597;50.914;6.638;2022-12-18T12:17:03;27.45;;;10.75;;
28343;SDS011;15597;50.914;6.638;2022-12-18T12:19:38;28.48;;;11.35;;
28343;SDS011;15597;50.914;6.638;2022-12-18T12:25:07;38.92;;;14.02;;
28343;SDS011;15597;50.914;6.638;2022-12-18T12:38:35;24.92;;;11.35;;
28343;SDS011;15597;50.914;6.638;2022-12-18T12:41:09;40.60;;;13.48;;
28343;SDS011;15597;50.914;6.638;2022-12-18T12:44:00;27.88;;;11.65;;
28343;SDS011;15597;50.914;6.638;2022-12-18T12:46:30;38.05;;;13.45;;
28343;SDS011;15597;50.914;6.638;2022-12-18T12:49:03;35.00;;;11.73;;
28343;SDS011;15597;50.914;6.638;2022-12-18T12:51:38;38.75;;;11.85;;
28343;SDS011;15597;50.914;6.638;2022-12-18T12:54:11;46.05;;;17.83;;
28343;SDS011;15597;50.914;6.638;2022-12-18T12:59:36;32.58;;;11.57;;
28343;SDS011;15597;50.914;6.638;2022-12-18T13:02:22;33.22;;;15.38;;
28343;SDS011;15597;50.914;6.638;2022-12-18T13:05:02;28.70;;;8.90;;
28343;SDS011;15597;50.914;6.638;2022-12-18T13:07:39;40.45;;;12.10;;
28343;SDS011;15597;50.914;6.638;2022-12-18T13:10:53;36.13;;;12.18;;
28343;SDS011;15597;50.914;6.638;2022-12-18T13:13:05;35.78;;;13.73;;
28343;SDS011;15597;50.914;6.638;2022-12-18T13:15:43;38.35;;;14.30;;
28343;SDS011;15597;50.914;6.638;2022-12-18T13:18:28;26.42;;;10.63;;
28343;SDS011;15597;50.914;6.638;2022-12-18T13:25:57;42.88;;;13.63;;
28343;SDS011;15597;50.914;6.638;2022-12-18T13:30:58;28.25;;;10.68;;
28343;SDS011;15597;50.914;6.638;2022-12-18T13:36:08;34.20;;;10.45;;
28343;SDS011;15597;50.914;6.638;2022-12-18T13:38:40;41.05;;;13.18;;
28343;SDS011;15597;50.914;6.638;2022-12-18T13:43:41;37.67;;;11.80;;
28343;SDS011;15597;50.914;6.638;2022-12-18T13:51:31;29.60;;;9.32;;
28343;SDS011;15597;50.914;6.638;2022-12-18T13:53:59;42.08;;;11.93;;
28343;SDS011;15597;50.914;6.638;2022-12-18T13:56:29;27.52;;;11.43;;
28343;SDS011;15597;50.914;6.638;2022-12-18T13:59:03;34.05;;;12.98;;
28343;SDS011;15597;50.914;6.638;2022-12-18T14:01:32;30.42;;;10.98;;
28343;SDS011;15597;50.914;6.638;2022-12-18T14:09:30;27.92;;;10.07;;
28343;SDS011;15597;50.914;6.638;2022-12-18T14:12:00;29.88;;;12.50;;
28343;SDS011;15597;50.914;6.638;2022-12-18T14:14:48;31.73;;;12.65;;
28343;SDS011;15597;50.914;6.638;2022-12-18T14:17:15;33.70;;;12.48;;
28343;SDS011;15597;50.914;6.638;2022-12-18T14:19:42;30.50;;;12.80;;
28343;SDS011;15597;50.914;6.638;2022-12-18T14:22:15;18.25;;;8.05;;
28343;SDS011;15597;50.914;6.638;2022-12-18T14:24:42;29.52;;;12.50;;
28343;SDS011;15597;50.914;6.638;2022-12-18T14:27:26;30.27;;;11.73;;
28343;SDS011;15597;50.914;6.638;2022-12-18T14:29:52;28.95;;;11.43;;
28343;SDS011;15597;50.914;6.638;2022-12-18T14:32:18;31.60;;;12.45;;
28343;SDS011;15597;50.914;6.638;2022-12-18T14:34:45;35.30;;;13.68;;
28343;SDS011;15597;50.914;6.638;2022-12-18T14:37:17;38.95;;;12.77;;
28343;SDS011;15597;50.914;6.638;2022-12-18T14:42:19;33.38;;;12.65;;
28343;SDS011;15597;50.914;6.638;2022-12-18T14:44:45;35.13;;;12.27;;
28343;SDS011;15597;50.914;6.638;2022-12-18T14:47:14;33.63;;;13.32;;
28343;SDS011;15597;50.914;6.638;2022-12-18T14:49:41;30.95;;;12.15;;
28343;SDS011;15597;50.914;6.638;2022-12-18T14:52:20;39.10;;;13.30;;
28343;SDS011;15597;50.914;6.638;2022-12-18T14:54:51;42.45;;;13.20;;
28343;SDS011;15597;50.914;6.638;2022-12-18T14:57:20;32.25;;;12.80;;
28343;SDS011;15597;50.914;6.638;2022-12-18T14:59:51;35.75;;;12.45;;
28343;SDS011;15597;50.914;6.638;2022-12-18T15:05:00;34.17;;;12.13;;
28343;SDS011;15597;50.914;6.638;2022-12-18T15:07:47;36.08;;;14.90;;
28343;SDS011;15597;50.914;6.638;2022-12-18T15:18:04;33.42;;;13.45;;
28343;SDS011;15597;50.914;6.638;2022-12-18T15:23:24;34.83;;;13.40;;
28343;SDS011;15597;50.914;6.638;2022-12-18T15:31:32;42.88;;;13.00;;
28343;SDS011;15597;50.914;6.638;2022-12-18T15:33:42;30.50;;;13.02;;
28343;SDS011;15597;50.914;6.638;2022-12-18T15:36:12;31.10;;;12.75;;
28343;SDS011;15597;50.914;6.638;2022-12-18T15:38:39;33.42;;;13.55;;
28343;SDS011;15597;50.914;6.638;2022-12-18T15:41:12;42.08;;;14.25;;
28343;SDS011;15597;50.914;6.638;2022-12-18T15:43:39;38.72;;;14.25;;
28343;SDS011;15597;50.914;6.638;2022-12-18T15:48:44;34.30;;;12.77;;
28343;SDS011;15597;50.914;6.638;2022-12-18T15:51:24;33.50;;;13.25;;
28343;SDS011;15597;50.914;6.638;2022-12-18T15:53:54;33.65;;;11.98;;
28343;SDS011;15597;50.914;6.638;2022-12-18T15:56:23;40.75;;;14.00;;
28343;SDS011;15597;50.914;6.638;2022-12-18T15:59:12;32.95;;;13.73;;
28343;SDS011;15597;50.914;6.638;2022-12-18T16:01:46;37.13;;;12.68;;
28343;SDS011;15597;50.914;6.638;2022-12-18T16:04:13;35.50;;;13.27;;
28343;SDS011;15597;50.914;6.638;2022-12-18T16:06:40;44.17;;;13.25;;
28343;SDS011;15597;50.914;6.638;2022-12-18T16:09:06;34.88;;;13.32;;
28343;SDS011;15597;50.914;6.638;2022-12-18T16:11:32;36.33;;;13.35;;
28343;SDS011;15597;50.914;6.638;2022-12-18T16:14:16;32.80;;;14.13;;
28343;SDS011;15597;50.914;6.638;2022-12-18T16:16:42;33.22;;;13.95;;
28343;SDS011;15597;50.914;6.638;2022-12-18T16:19:08;36.20;;;13.15;;
28343;SDS011;15597;50.914;6.638;2022-12-18T16:21:33;26.88;;;11.88;;
28343;SDS011;15597;50.914;6.638;2022-12-18T16:23:59;31.35;;;11.52;;
28343;SDS011;15597;50.914;6.638;2022-12-18T16:26:25;30.15;;;11.07;;
28343;SDS011;15597;50.914;6.638;2022-12-18T16:28:50;31.27;;;12.80;;
28343;SDS011;15597;50.914;6.638;2022-12-18T16:31:16;36.03;;;12.60;;
28343;SDS011;15597;50.914;6.638;2022-12-18T16:33:42;33.40;;;12.93;;
28343;SDS011;15597;50.914;6.638;2022-12-18T16:36:07;31.50;;;12.75;;
28343;SDS011;15597;50.914;6.638;2022-12-18T16:38:33;29.15;;;11.60;;
28343;SDS011;15597;50.914;6.638;2022-12-18T16:40:58;31.35;;;12.63;;
28343;SDS011;15597;50.914;6.638;2022-12-18T16:43:44;29.55;;;10.52;;
28343;SDS011;15597;50.914;6.638;2022-12-18T16:46:09;32.55;;;13.73;;
28343;SDS011;15597;50.914;6.638;2022-12-18T16:48:35;25.88;;;11.13;;
28343;SDS011;15597;50.914;6.638;2022-12-18T16:51:02;28.88;;;11.30;;
28343;SDS011;15597;50.914;6.638;2022-12-18T16:53:29;28.83;;;12.48;;
28343;SDS011;15597;50.914;6.638;2022-12-18T16:55:57;33.70;;;12.00;;
28343;SDS011;15597;50.914;6.638;2022-12-18T16:58:23;27.10;;;12.23;;